sensor_id;sensor_type;location;lat;lon;timestamp;pressure;altitude;pressure_sealevel;temperature;humidity
45888;BME280;31595;51.418;7.572;2022-12-07T00:01:15;100299.31;;;7.82;70.96
45888;BME280;31595;51.418;7.572;2022-12-07T00:03:45;100301.78;;;7.83;70.33
45888;BME280;31595;51.418;7.572;2022-12-07T00:06:13;100298.78;;;7.80;70.02
45888;BME280;31595;51.418;7.572;2022-12-07T00:08:41;100297.88;;;7.84;70.51
45888;BME280;31595;51.418;7.572;2022-12-07T00:11:09;100302.66;;;7.79;70.49
45888;BME280;31595;51.418;7.572;2022-12-07T00:13:36;100298.31;;;7.91;69.81
45888;BME280;31595;51.418;7.572;2022-12-07T00:16:04;100294.97;;;7.76;71.23
45888;BME280;31595;51.418;7.572;2022-12-07T00:18:31;100296.28;;;7.78;71.07
45888;BME280;31595;51.418;7.572;2022-12-07T00:21:03;100298.81;;;7.93;71.13
45888;BME280;31595;51.418;7.572;2022-12-07T00:23:30;100293.28;;;7.93;70.96
45888;BME280;31595;51.418;7.572;2022-12-07T00:26:02;100297.28;;;8.06;69.91
45888;BME280;31595;51.418;7.572;2022-12-07T00:28:29;100295.75;;;8.14;68.88
45888;BME280;31595;51.418;7.572;2022-12-07T00:30:59;100295.66;;;8.19;69.23
45888;BME280;31595;51.418;7.572;2022-12-07T00:33:26;100298.13;;;8.21;69.59
45888;BME280;31595;51.418;7.572;2022-12-07T00:35:54;100298.06;;;8.26;69.25
45888;BME280;31595;51.418;7.572;2022-12-07T00:38:23;100295.75;;;8.14;68.81
45888;BME280;31595;51.418;7.572;2022-12-07T00:40:53;100293.09;;;8.23;68.58
45888;BME280;31595;51.418;7.572;2022-12-07T00:43:20;100289.44;;;8.27;69.40
45888;BME280;31595;51.418;7.572;2022-12-07T00:45:47;100291.47;;;8.22;69.22
45888;BME280;31595;51.418;7.572;2022-12-07T00:48:14;100285.25;;;8.11;69.15
45888;BME280;31595;51.418;7.572;2022-12-07T00:50:41;100286.06;;;8.11;68.24
45888;BME280;31595;51.418;7.572;2022-12-07T00:53:08;100287.63;;;8.18;68.72
45888;BME280;31595;51.418;7.572;2022-12-07T00:55:36;100282.91;;;8.18;69.38
45888;BME280;31595;51.418;7.572;2022-12-07T00:58:03;100285.91;;;8.22;69.51
45888;BME280;31595;51.418;7.572;2022-12-07T01:00:30;100270.53;;;8.29;68.24
45888;BME280;31595;51.418;7.572;2022-12-07T01:02:58;100268.75;;;8.33;68.62
45888;BME280;31595;51.418;7.572;2022-12-07T01:05:25;100269.09;;;8.32;67.69
45888;BME280;31595;51.418;7.572;2022-12-07T01:07:52;100270.72;;;8.33;69.08
45888;BME280;31595;51.418;7.572;2022-12-07T01:10:19;100269.50;;;8.39;68.71
45888;BME280;31595;51.418;7.572;2022-12-07T01:12:47;100272.53;;;8.43;67.92
45888;BME280;31595;51.418;7.572;2022-12-07T01:15:14;100273.34;;;8.43;68.53
45888;BME280;31595;51.418;7.572;2022-12-07T01:17:41;100269.63;;;8.34;68.13
45888;BME280;31595;51.418;7.572;2022-12-07T01:20:08;100267.28;;;8.41;68.62
45888;BME280;31595;51.418;7.572;2022-12-07T01:22:36;100274.50;;;8.42;68.51
45888;BME280;31595;51.418;7.572;2022-12-07T01:25:03;100275.47;;;8.32;67.70
45888;BME280;31595;51.418;7.572;2022-12-07T01:27:30;100275.06;;;8.39;68.44
45888;BME280;31595;51.418;7.572;2022-12-07T01:30:00;100272.28;;;8.39;68.08
45888;BME280;31595;51.418;7.572;2022-12-07T01:32:27;100266.31;;;8.32;67.98
45888;BME280;31595;51.418;7.572;2022-12-07T01:34:54;100272.91;;;8.36;67.77
45888;BME280;31595;51.418;7.572;2022-12-07T01:37:21;100277.94;;;8.34;67.90
45888;BME280;31595;51.418;7.572;2022-12-07T01:39:50;100274.53;;;8.37;68.78
45888;BME280;31595;51.418;7.572;2022-12-07T01:42:18;100268.63;;;8.25;68.16
45888;BME280;31595;51.418;7.572;2022-12-07T01:47:31;100278.34;;;8.27;68.81
45888;BME280;31595;51.418;7.572;2022-12-07T01:49:58;100276.06;;;8.29;68.69
45888;BME280;31595;51.418;7.572;2022-12-07T01:52:25;100279.75;;;8.25;67.85
45888;BME280;31595;51.418;7.572;2022-12-07T01:54:55;100273.50;;;8.33;68.41
45888;BME280;31595;51.418;7.572;2022-12-07T01:57:23;100279.75;;;8.25;68.11
45888;BME280;31595;51.418;7.572;2022-12-07T01:59:51;100279.88;;;8.33;69.03
45888;BME280;31595;51.418;7.572;2022-12-07T02:02:18;100280.25;;;8.27;69.21
45888;BME280;31595;51.418;7.572;2022-12-07T02:04:47;100266.84;;;8.34;69.42
45888;BME280;31595;51.418;7.572;2022-12-07T02:07:15;100272.06;;;8.36;68.17
45888;BME280;31595;51.418;7.572;2022-12-07T02:09:42;100264.88;;;8.34;68.73
45888;BME280;31595;51.418;7.572;2022-12-07T02:12:09;100269.63;;;8.34;68.17
45888;BME280;31595;51.418;7.572;2022-12-07T02:14:36;100260.78;;;8.32;68.96
45888;BME280;31595;51.418;7.572;2022-12-07T02:17:06;100258.19;;;8.36;68.47
45888;BME280;31595;51.418;7.572;2022-12-07T02:22:29;100255.75;;;8.34;68.26
45888;BME280;31595;51.418;7.572;2022-12-07T02:25:03;100249.84;;;8.36;68.11
45888;BME280;31595;51.418;7.572;2022-12-07T02:27:43;100251.28;;;8.33;68.70
45888;BME280;31595;51.418;7.572;2022-12-07T02:30:13;100255.63;;;8.39;67.79
45888;BME280;31595;51.418;7.572;2022-12-07T02:32:42;100262.31;;;8.38;69.25
45888;BME280;31595;51.418;7.572;2022-12-07T02:35:11;100265.03;;;8.43;68.09
45888;BME280;31595;51.418;7.572;2022-12-07T02:37:40;100262.25;;;8.43;68.41
45888;BME280;31595;51.418;7.572;2022-12-07T02:40:10;100272.25;;;8.44;68.74
45888;BME280;31595;51.418;7.572;2022-12-07T02:42:40;100263.97;;;8.39;68.00
45888;BME280;31595;51.418;7.572;2022-12-07T02:45:15;100260.97;;;8.36;68.70
45888;BME280;31595;51.418;7.572;2022-12-07T02:47:44;100265.31;;;8.42;67.81
45888;BME280;31595;51.418;7.572;2022-12-07T02:50:13;100260.81;;;8.46;67.72
45888;BME280;31595;51.418;7.572;2022-12-07T02:52:40;100263.22;;;8.52;67.25
45888;BME280;31595;51.418;7.572;2022-12-07T02:55:07;100265.66;;;8.54;67.19
45888;BME280;31595;51.418;7.572;2022-12-07T02:57:42;100261.56;;;8.51;68.32
45888;BME280;31595;51.418;7.572;2022-12-07T03:00:13;100263.50;;;8.51;67.18
45888;BME280;31595;51.418;7.572;2022-12-07T03:02:46;100258.66;;;8.57;67.71
45888;BME280;31595;51.418;7.572;2022-12-07T03:05:20;100259.28;;;8.53;66.46
45888;BME280;31595;51.418;7.572;2022-12-07T03:07:55;100267.31;;;8.55;66.35
45888;BME280;31595;51.418;7.572;2022-12-07T03:10:27;100262.59;;;8.56;66.13
45888;BME280;31595;51.418;7.572;2022-12-07T03:12:59;100267.00;;;8.57;66.77
45888;BME280;31595;51.418;7.572;2022-12-07T03:15:30;100259.19;;;8.59;67.46
45888;BME280;31595;51.418;7.572;2022-12-07T03:17:59;100252.81;;;8.44;67.06
45888;BME280;31595;51.418;7.572;2022-12-07T03:20:28;100259.41;;;8.48;66.40
45888;BME280;31595;51.418;7.572;2022-12-07T03:22:55;100257.28;;;8.40;67.21
45888;BME280;31595;51.418;7.572;2022-12-07T03:25:24;100255.59;;;8.44;67.36
45888;BME280;31595;51.418;7.572;2022-12-07T03:27:53;100259.47;;;8.43;66.14
45888;BME280;31595;51.418;7.572;2022-12-07T03:30:22;100253.09;;;8.43;66.56
45888;BME280;31595;51.418;7.572;2022-12-07T03:32:50;100254.88;;;8.33;67.18
45888;BME280;31595;51.418;7.572;2022-12-07T03:35:21;100256.31;;;8.31;67.49
45888;BME280;31595;51.418;7.572;2022-12-07T03:37:51;100252.16;;;8.14;66.33
45888;BME280;31595;51.418;7.572;2022-12-07T03:40:21;100254.88;;;8.20;66.40
45888;BME280;31595;51.418;7.572;2022-12-07T03:42:50;100251.91;;;8.30;66.14
45888;BME280;31595;51.418;7.572;2022-12-07T03:45:18;100253.88;;;8.29;66.04
45888;BME280;31595;51.418;7.572;2022-12-07T03:47:47;100251.47;;;8.23;66.56
45888;BME280;31595;51.418;7.572;2022-12-07T03:50:15;100250.97;;;8.21;65.77
45888;BME280;31595;51.418;7.572;2022-12-07T03:52:46;100249.41;;;8.14;65.94
45888;BME280;31595;51.418;7.572;2022-12-07T03:55:16;100254.88;;;8.20;66.72
45888;BME280;31595;51.418;7.572;2022-12-07T03:57:45;100261.53;;;8.19;65.65
45888;BME280;31595;51.418;7.572;2022-12-07T04:00:14;100256.91;;;8.14;66.32
45888;BME280;31595;51.418;7.572;2022-12-07T04:02:41;100251.97;;;8.11;67.09
45888;BME280;31595;51.418;7.572;2022-12-07T04:05:08;100254.00;;;8.05;66.38
45888;BME280;31595;51.418;7.572;2022-12-07T04:07:35;100259.44;;;8.10;65.89
45888;BME280;31595;51.418;7.572;2022-12-07T04:10:04;100255.66;;;8.06;65.95
45888;BME280;31595;51.418;7.572;2022-12-07T04:12:31;100257.06;;;8.04;66.95
45888;BME280;31595;51.418;7.572;2022-12-07T04:14:58;100252.88;;;8.06;66.86
45888;BME280;31595;51.418;7.572;2022-12-07T04:17:25;100255.31;;;7.94;66.35
45888;BME280;31595;51.418;7.572;2022-12-07T04:19:52;100259.06;;;7.84;66.00
45888;BME280;31595;51.418;7.572;2022-12-07T04:22:19;100257.63;;;7.87;67.11
45888;BME280;31595;51.418;7.572;2022-12-07T04:24:46;100254.56;;;7.88;66.53
45888;BME280;31595;51.418;7.572;2022-12-07T04:27:14;100250.59;;;7.76;66.64
45888;BME280;31595;51.418;7.572;2022-12-07T04:29:41;100255.09;;;7.71;66.02
45888;BME280;31595;51.418;7.572;2022-12-07T04:32:08;100253.00;;;7.63;67.10
45888;BME280;31595;51.418;7.572;2022-12-07T04:34:35;100257.72;;;7.63;66.61
45888;BME280;31595;51.418;7.572;2022-12-07T04:37:02;100247.06;;;7.51;67.74
45888;BME280;31595;51.418;7.572;2022-12-07T04:39:30;100251.94;;;7.59;67.68
45888;BME280;31595;51.418;7.572;2022-12-07T04:41:57;100244.69;;;7.63;67.00
45888;BME280;31595;51.418;7.572;2022-12-07T04:44:25;100251.41;;;7.57;66.61
45888;BME280;31595;51.418;7.572;2022-12-07T04:46:53;100247.47;;;7.63;67.00
45888;BME280;31595;51.418;7.572;2022-12-07T04:49:21;100255.25;;;7.61;67.71
45888;BME280;31595;51.418;7.572;2022-12-07T04:51:48;100249.63;;;7.47;67.08
45888;BME280;31595;51.418;7.572;2022-12-07T04:54:15;100253.09;;;7.58;67.17
45888;BME280;31595;51.418;7.572;2022-12-07T04:56:42;100240.28;;;7.62;67.92
45888;BME280;31595;51.418;7.572;2022-12-07T04:59:10;100249.47;;;7.58;67.45
45888;BME280;31595;51.418;7.572;2022-12-07T05:01:38;100248.50;;;7.67;67.54
45888;BME280;31595;51.418;7.572;2022-12-07T05:04:05;100252.25;;;7.58;66.79
45888;BME280;31595;51.418;7.572;2022-12-07T05:06:33;100235.31;;;7.59;67.55
45888;BME280;31595;51.418;7.572;2022-12-07T05:09:00;100243.63;;;7.59;67.61
45888;BME280;31595;51.418;7.572;2022-12-07T05:11:27;100231.72;;;7.59;66.85
45888;BME280;31595;51.418;7.572;2022-12-07T05:14:07;100241.28;;;7.66;67.46
45888;BME280;31595;51.418;7.572;2022-12-07T05:16:34;100239.44;;;7.62;67.23
45888;BME280;31595;51.418;7.572;2022-12-07T05:19:03;100250.75;;;7.65;66.37
45888;BME280;31595;51.418;7.572;2022-12-07T05:21:30;100238.47;;;7.71;67.48
45888;BME280;31595;51.418;7.572;2022-12-07T05:23:57;100239.28;;;7.72;66.23
45888;BME280;31595;51.418;7.572;2022-12-07T05:26:23;100240.72;;;7.69;66.77
45888;BME280;31595;51.418;7.572;2022-12-07T05:28:51;100240.09;;;7.72;66.48
45888;BME280;31595;51.418;7.572;2022-12-07T05:31:18;100245.13;;;7.70;66.67
45888;BME280;31595;51.418;7.572;2022-12-07T05:33:45;100238.69;;;7.75;65.86
45888;BME280;31595;51.418;7.572;2022-12-07T05:36:13;100245.56;;;7.78;66.88
45888;BME280;31595;51.418;7.572;2022-12-07T05:38:41;100245.56;;;7.78;66.56
45888;BME280;31595;51.418;7.572;2022-12-07T05:41:08;100239.41;;;7.81;67.26
45888;BME280;31595;51.418;7.572;2022-12-07T05:43:57;100233.44;;;7.73;67.00
45888;BME280;31595;51.418;7.572;2022-12-07T05:46:23;100232.91;;;7.71;66.93
45888;BME280;31595;51.418;7.572;2022-12-07T05:48:51;100232.31;;;7.75;66.56
45888;BME280;31595;51.418;7.572;2022-12-07T05:51:19;100235.31;;;7.78;66.68
45888;BME280;31595;51.418;7.572;2022-12-07T05:53:46;100232.41;;;7.69;67.14
45888;BME280;31595;51.418;7.572;2022-12-07T05:56:13;100229.09;;;7.67;66.52
45888;BME280;31595;51.418;7.572;2022-12-07T05:58:40;100235.69;;;7.71;66.97
45888;BME280;31595;51.418;7.572;2022-12-07T06:01:24;100230.16;;;7.71;67.24
45888;BME280;31595;51.418;7.572;2022-12-07T06:03:51;100230.19;;;7.66;67.36
45888;BME280;31595;51.418;7.572;2022-12-07T06:06:19;100242.88;;;7.72;67.25
45888;BME280;31595;51.418;7.572;2022-12-07T06:08:46;100227.53;;;7.61;67.47
45888;BME280;31595;51.418;7.572;2022-12-07T06:11:13;100236.50;;;7.72;66.35
45888;BME280;31595;51.418;7.572;2022-12-07T06:13:57;100236.28;;;7.68;67.21
45888;BME280;31595;51.418;7.572;2022-12-07T06:16:24;100234.94;;;7.66;66.39
45888;BME280;31595;51.418;7.572;2022-12-07T06:18:51;100223.03;;;7.65;67.51
45888;BME280;31595;51.418;7.572;2022-12-07T06:21:19;100225.72;;;7.70;67.20
45888;BME280;31595;51.418;7.572;2022-12-07T06:23:46;100236.22;;;7.73;67.12
45888;BME280;31595;51.418;7.572;2022-12-07T06:26:13;100231.63;;;7.64;66.01
45888;BME280;31595;51.418;7.572;2022-12-07T06:28:40;100231.44;;;7.60;67.52
45888;BME280;31595;51.418;7.572;2022-12-07T06:31:07;100236.88;;;7.65;67.25
45888;BME280;31595;51.418;7.572;2022-12-07T06:33:34;100247.22;;;7.60;66.72
45888;BME280;31595;51.418;7.572;2022-12-07T06:36:01;100251.88;;;7.64;67.24
45888;BME280;31595;51.418;7.572;2022-12-07T06:38:30;100248.59;;;7.62;65.88
45888;BME280;31595;51.418;7.572;2022-12-07T06:40:57;100248.88;;;7.61;67.39
45888;BME280;31595;51.418;7.572;2022-12-07T06:43:24;100236.47;;;7.58;67.54
45888;BME280;31595;51.418;7.572;2022-12-07T06:45:50;100236.13;;;7.41;67.66
45888;BME280;31595;51.418;7.572;2022-12-07T06:48:17;100250.47;;;7.48;67.38
45888;BME280;31595;51.418;7.572;2022-12-07T06:50:44;100242.00;;;7.58;66.75
45888;BME280;31595;51.418;7.572;2022-12-07T06:53:12;100252.19;;;7.63;66.18
45888;BME280;31595;51.418;7.572;2022-12-07T06:55:40;100253.97;;;7.53;66.89
45888;BME280;31595;51.418;7.572;2022-12-07T06:58:07;100252.72;;;7.65;66.24
45888;BME280;31595;51.418;7.572;2022-12-07T07:00:34;100245.06;;;7.57;66.88
45888;BME280;31595;51.418;7.572;2022-12-07T07:03:01;100241.00;;;7.49;67.67
45888;BME280;31595;51.418;7.572;2022-12-07T07:05:28;100248.13;;;7.55;66.83
45888;BME280;31595;51.418;7.572;2022-12-07T07:07:55;100243.06;;;7.62;67.69
45888;BME280;31595;51.418;7.572;2022-12-07T07:10:22;100258.38;;;7.73;67.89
45888;BME280;31595;51.418;7.572;2022-12-07T07:12:50;100247.66;;;7.86;67.00
45888;BME280;31595;51.418;7.572;2022-12-07T07:15:17;100257.34;;;7.69;66.09
45888;BME280;31595;51.418;7.572;2022-12-07T07:17:44;100251.03;;;7.83;66.82
45888;BME280;31595;51.418;7.572;2022-12-07T07:20:11;100247.97;;;7.84;66.06
45888;BME280;31595;51.418;7.572;2022-12-07T07:22:38;100253.28;;;7.81;66.14
45888;BME280;31595;51.418;7.572;2022-12-07T07:25:05;100258.00;;;7.80;66.06
45888;BME280;31595;51.418;7.572;2022-12-07T07:27:32;100255.69;;;7.68;66.53
45888;BME280;31595;51.418;7.572;2022-12-07T07:30:00;100264.59;;;7.65;65.30
45888;BME280;31595;51.418;7.572;2022-12-07T07:32:27;100259.97;;;7.61;65.75
45888;BME280;31595;51.418;7.572;2022-12-07T07:34:54;100265.13;;;7.67;65.84
45888;BME280;31595;51.418;7.572;2022-12-07T07:37:21;100266.94;;;7.58;66.48
45888;BME280;31595;51.418;7.572;2022-12-07T07:39:48;100264.09;;;7.63;66.38
45888;BME280;31595;51.418;7.572;2022-12-07T07:42:15;100265.13;;;7.67;66.60
45888;BME280;31595;51.418;7.572;2022-12-07T07:44:42;100258.84;;;7.62;66.06
45888;BME280;31595;51.418;7.572;2022-12-07T07:47:10;100259.06;;;7.46;66.73
45888;BME280;31595;51.418;7.572;2022-12-07T07:49:37;100260.78;;;7.42;66.71
45888;BME280;31595;51.418;7.572;2022-12-07T07:52:04;100261.06;;;7.41;66.17
45888;BME280;31595;51.418;7.572;2022-12-07T07:54:32;100262.06;;;7.50;67.06
45888;BME280;31595;51.418;7.572;2022-12-07T07:56:58;100262.50;;;7.57;65.79
45888;BME280;31595;51.418;7.572;2022-12-07T07:59:25;100263.84;;;7.60;66.71
45888;BME280;31595;51.418;7.572;2022-12-07T08:01:52;100266.03;;;7.63;65.04
45888;BME280;31595;51.418;7.572;2022-12-07T08:04:21;100265.28;;;7.57;65.35
45888;BME280;31595;51.418;7.572;2022-12-07T08:06:48;100266.69;;;7.36;65.51
45888;BME280;31595;51.418;7.572;2022-12-07T08:09:15;100263.84;;;7.60;65.64
45888;BME280;31595;51.418;7.572;2022-12-07T08:11:42;100261.53;;;7.67;65.35
45888;BME280;31595;51.418;7.572;2022-12-07T08:14:09;100270.75;;;7.81;65.84
45888;BME280;31595;51.418;7.572;2022-12-07T08:16:37;100268.28;;;7.80;65.44
45888;BME280;31595;51.418;7.572;2022-12-07T08:19:04;100266.72;;;7.73;65.24
45888;BME280;31595;51.418;7.572;2022-12-07T08:21:32;100266.31;;;7.80;64.91
45888;BME280;31595;51.418;7.572;2022-12-07T08:23:59;100282.56;;;7.87;65.22
45888;BME280;31595;51.418;7.572;2022-12-07T08:26:26;100280.47;;;7.98;64.13
45888;BME280;31595;51.418;7.572;2022-12-07T08:28:53;100282.94;;;7.99;64.14
45888;BME280;31595;51.418;7.572;2022-12-07T08:31:20;100276.19;;;8.05;64.46
45888;BME280;31595;51.418;7.572;2022-12-07T08:33:47;100279.31;;;8.18;63.79
45888;BME280;31595;51.418;7.572;2022-12-07T08:36:14;100279.97;;;8.28;62.92
45888;BME280;31595;51.418;7.572;2022-12-07T08:38:43;100282.44;;;8.30;64.03
45888;BME280;31595;51.418;7.572;2022-12-07T08:41:09;100289.59;;;8.50;63.64
45888;BME280;31595;51.418;7.572;2022-12-07T08:43:36;100285.94;;;8.68;61.84
45888;BME280;31595;51.418;7.572;2022-12-07T08:46:06;100284.34;;;8.95;61.51
45888;BME280;31595;51.418;7.572;2022-12-07T08:48:33;100288.66;;;9.65;58.78
45888;BME280;31595;51.418;7.572;2022-12-07T08:51:01;100281.09;;;9.43;59.54
45888;BME280;31595;51.418;7.572;2022-12-07T08:53:29;100283.88;;;9.43;59.84
45888;BME280;31595;51.418;7.572;2022-12-07T08:55:58;100277.44;;;9.20;60.14
45888;BME280;31595;51.418;7.572;2022-12-07T08:58:24;100279.59;;;9.09;60.14
45888;BME280;31595;51.418;7.572;2022-12-07T09:00:51;100281.97;;;9.16;60.53
45888;BME280;31595;51.418;7.572;2022-12-07T09:03:18;100282.47;;;9.18;59.33
45888;BME280;31595;51.418;7.572;2022-12-07T09:05:45;100286.16;;;9.27;60.22
45888;BME280;31595;51.418;7.572;2022-12-07T09:08:12;100281.41;;;9.28;59.19
45888;BME280;31595;51.418;7.572;2022-12-07T09:10:39;100275.16;;;9.22;59.25
45888;BME280;31595;51.418;7.572;2022-12-07T09:13:07;100284.84;;;9.25;59.27
45888;BME280;31595;51.418;7.572;2022-12-07T09:15:34;100279.88;;;9.35;59.29
45888;BME280;31595;51.418;7.572;2022-12-07T09:18:01;100268.31;;;9.56;59.25
45888;BME280;31595;51.418;7.572;2022-12-07T09:20:28;100271.97;;;9.65;58.72
45888;BME280;31595;51.418;7.572;2022-12-07T09:22:55;100276.72;;;9.65;58.57
45888;BME280;31595;51.418;7.572;2022-12-07T09:25:22;100279.81;;;9.63;59.17
45888;BME280;31595;51.418;7.572;2022-12-07T09:27:54;100277.97;;;9.59;59.52
45888;BME280;31595;51.418;7.572;2022-12-07T09:30:22;100285.44;;;9.35;59.24
45888;BME280;31595;51.418;7.572;2022-12-07T09:32:49;100282.13;;;9.47;59.37
45888;BME280;31595;51.418;7.572;2022-12-07T09:35:16;100279.44;;;9.42;58.90
45888;BME280;31595;51.418;7.572;2022-12-07T09:37:43;100279.97;;;9.44;58.80
45888;BME280;31595;51.418;7.572;2022-12-07T09:40:11;100286.06;;;9.32;59.47
45888;BME280;31595;51.418;7.572;2022-12-07T09:42:38;100274.44;;;9.30;60.06
45888;BME280;31595;51.418;7.572;2022-12-07T09:45:06;100281.97;;;9.16;59.97
45888;BME280;31595;51.418;7.572;2022-12-07T09:47:40;100271.88;;;9.20;60.05
45888;BME280;31595;51.418;7.572;2022-12-07T09:50:10;100274.63;;;9.34;59.50
45888;BME280;31595;51.418;7.572;2022-12-07T09:52:38;100270.81;;;9.44;58.40
45888;BME280;31595;51.418;7.572;2022-12-07T09:55:09;100263.19;;;9.72;59.03
45888;BME280;31595;51.418;7.572;2022-12-07T09:57:37;100262.66;;;9.84;58.38
45888;BME280;31595;51.418;7.572;2022-12-07T10:00:06;100262.78;;;10.01;58.03
45888;BME280;31595;51.418;7.572;2022-12-07T10:02:35;100264.00;;;10.09;57.42
45888;BME280;31595;51.418;7.572;2022-12-07T10:05:04;100257.22;;;9.79;57.45
45888;BME280;31595;51.418;7.572;2022-12-07T10:07:32;100260.75;;;9.93;58.59
45888;BME280;31595;51.418;7.572;2022-12-07T10:09:59;100267.34;;;9.97;57.69
45888;BME280;31595;51.418;7.572;2022-12-07T10:12:28;100260.50;;;10.03;57.76
45888;BME280;31595;51.418;7.572;2022-12-07T10:14:56;100253.31;;;10.02;57.49
45888;BME280;31595;51.418;7.572;2022-12-07T10:17:29;100266.31;;;9.93;58.18
45888;BME280;31595;51.418;7.572;2022-12-07T10:22:41;100260.84;;;9.65;57.59
45888;BME280;31595;51.418;7.572;2022-12-07T10:25:21;100253.03;;;9.67;57.17
45888;BME280;31595;51.418;7.572;2022-12-07T10:27:57;100251.34;;;9.80;57.24
45888;BME280;31595;51.418;7.572;2022-12-07T10:30:24;100250.34;;;9.99;57.18
45888;BME280;31595;51.418;7.572;2022-12-07T10:32:51;100247.16;;;10.14;56.79
45888;BME280;31595;51.418;7.572;2022-12-07T10:35:20;100248.13;;;10.32;57.25
45888;BME280;31595;51.418;7.572;2022-12-07T10:37:49;100252.47;;;10.47;56.27
45888;BME280;31595;51.418;7.572;2022-12-07T10:40:32;100251.97;;;10.45;56.32
45888;BME280;31595;51.418;7.572;2022-12-07T10:43:00;100242.59;;;10.18;56.78
45888;BME280;31595;51.418;7.572;2022-12-07T10:45:27;100250.09;;;10.31;57.02
45888;BME280;31595;51.418;7.572;2022-12-07T10:47:55;100245.03;;;10.33;56.34
45888;BME280;31595;51.418;7.572;2022-12-07T10:53:21;100232.53;;;10.93;55.36
45888;BME280;31595;51.418;7.572;2022-12-07T10:56:05;100224.03;;;10.99;54.48
45888;BME280;31595;51.418;7.572;2022-12-07T10:58:40;100227.56;;;11.39;54.11
45888;BME280;31595;51.418;7.572;2022-12-07T11:01:17;100216.91;;;11.32;53.76
45888;BME280;31595;51.418;7.572;2022-12-07T11:06:33;100223.38;;;11.02;54.27
45888;BME280;31595;51.418;7.572;2022-12-07T11:09:14;100211.22;;;10.97;53.95
45888;BME280;31595;51.418;7.572;2022-12-07T11:11:44;100211.19;;;10.80;54.00
45888;BME280;31595;51.418;7.572;2022-12-07T11:14:16;100212.22;;;11.02;53.70
45888;BME280;31595;51.418;7.572;2022-12-07T11:16:53;100210.06;;;10.90;54.12
45888;BME280;31595;51.418;7.572;2022-12-07T11:19:40;100202.53;;;10.90;54.19
45888;BME280;31595;51.418;7.572;2022-12-07T11:22:17;100199.75;;;10.90;54.55
45888;BME280;31595;51.418;7.572;2022-12-07T11:24:50;100194.66;;;10.84;54.78
45888;BME280;31595;51.418;7.572;2022-12-07T11:27:24;100195.00;;;10.51;54.77
45888;BME280;31595;51.418;7.572;2022-12-07T11:29:59;100188.66;;;10.59;54.84
45888;BME280;31595;51.418;7.572;2022-12-07T11:32:34;100189.25;;;10.47;55.48
45888;BME280;31595;51.418;7.572;2022-12-07T11:35:09;100190.28;;;10.60;55.16
45888;BME280;31595;51.418;7.572;2022-12-07T11:37:37;100187.56;;;10.69;54.65
45888;BME280;31595;51.418;7.572;2022-12-07T11:40:12;100181.56;;;10.44;55.19
45888;BME280;31595;51.418;7.572;2022-12-07T11:42:42;100174.75;;;10.68;54.74
45888;BME280;31595;51.418;7.572;2022-12-07T11:45:13;100168.59;;;10.88;54.34
45888;BME280;31595;51.418;7.572;2022-12-07T11:47:43;100173.66;;;10.77;54.82
45888;BME280;31595;51.418;7.572;2022-12-07T11:50:15;100171.69;;;10.78;54.65
45888;BME280;31595;51.418;7.572;2022-12-07T11:52:47;100177.88;;;10.75;54.91
45888;BME280;31595;51.418;7.572;2022-12-07T11:55:19;100176.59;;;10.81;54.33
45888;BME280;31595;51.418;7.572;2022-12-07T11:57:49;100169.06;;;10.82;54.50
45888;BME280;31595;51.418;7.572;2022-12-07T12:00:17;100173.41;;;10.56;54.76
45888;BME280;31595;51.418;7.572;2022-12-07T12:02:46;100169.19;;;10.68;54.67
45888;BME280;31595;51.418;7.572;2022-12-07T12:05:16;100172.22;;;10.18;56.00
45888;BME280;31595;51.418;7.572;2022-12-07T12:07:44;100171.03;;;10.41;55.41
45888;BME280;31595;51.418;7.572;2022-12-07T12:10:15;100169.75;;;10.47;55.84
45888;BME280;31595;51.418;7.572;2022-12-07T12:12:48;100167.47;;;10.49;55.28
45888;BME280;31595;51.418;7.572;2022-12-07T12:15:23;100173.53;;;10.51;55.16
45888;BME280;31595;51.418;7.572;2022-12-07T12:20:41;100168.66;;;10.26;56.18
45888;BME280;31595;51.418;7.572;2022-12-07T12:23:10;100169.56;;;10.12;56.84
45888;BME280;31595;51.418;7.572;2022-12-07T12:25:40;100166.50;;;9.91;56.89
45888;BME280;31595;51.418;7.572;2022-12-07T12:28:18;100165.34;;;9.92;57.24
45888;BME280;31595;51.418;7.572;2022-12-07T12:30:47;100155.75;;;9.76;56.90
45888;BME280;31595;51.418;7.572;2022-12-07T12:33:30;100159.22;;;9.82;58.16
45888;BME280;31595;51.418;7.572;2022-12-07T12:38:50;100149.59;;;10.10;56.92
45888;BME280;31595;51.418;7.572;2022-12-07T12:44:08;100150.94;;;10.22;56.61
45888;BME280;31595;51.418;7.572;2022-12-07T12:46:53;100148.03;;;10.27;56.35
45888;BME280;31595;51.418;7.572;2022-12-07T12:54:58;100136.66;;;10.06;57.12
45888;BME280;31595;51.418;7.572;2022-12-07T12:57:26;100140.25;;;10.06;56.62
45888;BME280;31595;51.418;7.572;2022-12-07T12:59:57;100127.78;;;10.04;57.19
45888;BME280;31595;51.418;7.572;2022-12-07T13:02:25;100131.25;;;10.09;56.72
45888;BME280;31595;51.418;7.572;2022-12-07T13:04:54;100131.88;;;10.06;56.85
45888;BME280;31595;51.418;7.572;2022-12-07T13:10:20;100132.25;;;10.13;56.79
45888;BME280;31595;51.418;7.572;2022-12-07T13:12:54;100127.88;;;10.21;56.35
45888;BME280;31595;51.418;7.572;2022-12-07T13:15:33;100132.25;;;10.13;57.03
45888;BME280;31595;51.418;7.572;2022-12-07T13:18:02;100127.38;;;10.19;56.57
45888;BME280;31595;51.418;7.572;2022-12-07T13:20:48;100121.38;;;10.03;56.33
45888;BME280;31595;51.418;7.572;2022-12-07T13:23:22;100122.56;;;10.11;57.03
45888;BME280;31595;51.418;7.572;2022-12-07T13:28:36;100121.38;;;10.03;56.84
45888;BME280;31595;51.418;7.572;2022-12-07T13:31:14;100113.00;;;9.94;56.75
45888;BME280;31595;51.418;7.572;2022-12-07T13:33:43;100117.25;;;9.92;57.65
45888;BME280;31595;51.418;7.572;2022-12-07T13:36:13;100119.94;;;9.74;56.68
45888;BME280;31595;51.418;7.572;2022-12-07T13:38:48;100111.25;;;9.76;57.65
45888;BME280;31595;51.418;7.572;2022-12-07T13:41:16;100105.53;;;9.72;57.61